createdAt,value
2023-02-24T00:02:37.948Z,57.09
2023-02-24T00:05:28.152Z,57.08
2023-02-24T00:08:18.296Z,57.10
2023-02-24T00:11:14.232Z,57.07
2023-02-24T00:14:05.842Z,57.04
2023-02-24T00:16:57.116Z,57.08
2023-02-24T00:19:48.154Z,57.14
2023-02-24T00:22:39.225Z,57.17
2023-02-24T00:25:31.544Z,57.15
2023-02-24T00:28:22.414Z,57.14
2023-02-24T00:31:15.968Z,57.18
2023-02-24T00:34:07.040Z,57.25
2023-02-24T00:36:58.179Z,57.28
2023-02-24T00:39:48.919Z,57.34
2023-02-24T00:42:42.724Z,57.41
2023-02-24T00:45:33.962Z,57.48
2023-02-24T00:48:29.817Z,57.55
2023-02-24T00:51:24.527Z,57.64
2023-02-24T00:54:16.214Z,57.67
2023-02-24T00:57:08.677Z,57.76
2023-02-24T00:59:59.176Z,57.78
2023-02-24T01:02:49.353Z,57.85
2023-02-24T01:05:41.149Z,57.98
2023-02-24T01:08:31.553Z,57.96
2023-02-24T01:11:53.996Z,57.94
2023-02-24T01:14:45.575Z,57.92
2023-02-24T01:17:39.127Z,57.88
2023-02-24T01:20:30.623Z,57.90
2023-02-24T01:23:21.299Z,57.89
2023-02-24T01:26:12.306Z,57.90
2023-02-24T01:29:05.568Z,57.96
2023-02-24T01:31:58.332Z,57.88
2023-02-24T01:34:52.643Z,57.96
2023-02-24T01:37:45.512Z,57.90
2023-02-24T01:40:36.687Z,57.96
2023-02-24T01:43:26.731Z,57.96
2023-02-24T01:46:23.630Z,57.99
2023-02-24T01:49:19.812Z,57.96
2023-02-24T01:52:14.741Z,57.99
2023-02-24T01:55:11.895Z,57.87
2023-02-24T01:58:07.259Z,57.74
2023-02-24T02:00:58.386Z,57.66
2023-02-24T02:03:49.368Z,57.60
2023-02-24T02:06:40.326Z,57.58
2023-02-24T02:09:32.350Z,57.57
2023-02-24T02:12:22.882Z,57.60
2023-02-24T02:15:16.591Z,57.56
2023-02-24T02:18:16.558Z,57.61
2023-02-24T02:21:40.313Z,57.47
2023-02-24T02:24:56.134Z,57.43
2023-02-24T02:28:21.337Z,57.37
2023-02-24T02:31:46.744Z,57.33
2023-02-24T02:34:51.306Z,57.30
2023-02-24T02:37:51.876Z,57.32
2023-02-24T02:40:47.259Z,57.20
2023-02-24T02:43:45.334Z,57.15
2023-02-24T02:46:40.778Z,57.17
2023-02-24T02:49:37.346Z,57.27
2023-02-24T02:52:34.585Z,57.24
2023-02-24T02:55:32.056Z,57.22
2023-02-24T02:58:28.380Z,57.22
2023-02-24T03:01:21.879Z,57.16
2023-02-24T03:04:17.777Z,57.17
2023-02-24T03:07:11.153Z,57.17
2023-02-24T03:10:11.053Z,57.16
2023-02-24T03:13:05.127Z,57.01
2023-02-24T03:16:00.157Z,57.06
2023-02-24T03:18:55.912Z,57.07
2023-02-24T03:21:52.216Z,57.12
2023-02-24T03:24:44.379Z,57.19
2023-02-24T03:27:48.765Z,57.16
2023-02-24T03:30:45.344Z,57.26
2023-02-24T03:33:41.828Z,57.21
2023-02-24T03:36:32.789Z,57.23
2023-02-24T03:39:23.574Z,57.31
2023-02-24T03:42:28.133Z,57.34
2023-02-24T03:45:21.694Z,57.31
2023-02-24T03:48:13.266Z,57.23
2023-02-24T03:51:04.364Z,57.34
2023-02-24T03:54:21.821Z,57.32
2023-02-24T03:57:26.170Z,57.33
2023-02-24T04:00:23.016Z,57.39
2023-02-24T04:03:25.920Z,57.39
2023-02-24T04:06:23.663Z,57.43
2023-02-24T04:09:24.853Z,57.52
2023-02-24T04:12:28.102Z,57.61
2023-02-24T04:15:29.216Z,57.63
2023-02-24T04:18:22.900Z,57.70
2023-02-24T04:21:14.181Z,57.77
2023-02-24T04:24:12.140Z,57.80
2023-02-24T04:27:06.733Z,57.85
2023-02-24T04:30:04.985Z,57.89
2023-02-24T04:32:56.692Z,57.91
2023-02-24T04:35:50.752Z,57.92
2023-02-24T04:38:41.978Z,57.97
2023-02-24T04:41:33.304Z,57.99
2023-02-24T04:44:23.974Z,57.92
2023-02-24T04:47:14.650Z,57.96
2023-02-24T04:50:06.973Z,57.99
2023-02-24T04:53:01.046Z,58.00
2023-02-24T04:55:51.660Z,58.06
2023-02-24T04:58:43.954Z,58.08
2023-02-24T05:01:35.128Z,58.04
2023-02-24T05:04:26.917Z,58.07
2023-02-24T05:07:17.996Z,58.10
2023-02-24T05:10:09.873Z,58.22
2023-02-24T05:13:02.522Z,58.19
2023-02-24T05:15:53.633Z,58.08
2023-02-24T05:18:45.001Z,58.07
2023-02-24T05:21:38.558Z,58.02
2023-02-24T05:24:30.034Z,57.96
2023-02-24T05:27:21.968Z,57.96
2023-02-24T05:30:14.747Z,57.95
2023-02-24T05:33:07.493Z,57.96
2023-02-24T05:35:59.056Z,58.01
2023-02-24T05:38:51.901Z,57.98
2023-02-24T05:41:43.742Z,58.04
2023-02-24T05:44:35.879Z,58.11
2023-02-24T05:47:27.312Z,58.17
2023-02-24T05:50:17.719Z,58.23
2023-02-24T05:53:09.793Z,58.28
2023-02-24T05:56:05.672Z,58.31
2023-02-24T05:59:02.245Z,58.37
2023-02-24T06:01:54.349Z,58.82
2023-02-24T06:04:51.315Z,58.80
2023-02-24T06:07:43.355Z,58.73
2023-02-24T06:10:35.013Z,58.57
2023-02-24T06:13:26.237Z,58.56
2023-02-24T06:16:17.443Z,58.52
2023-02-24T06:19:09.482Z,58.42
2023-02-24T06:22:01.841Z,58.47
2023-02-24T06:24:54.478Z,58.52
2023-02-24T06:27:45.127Z,58.48
2023-02-24T06:30:35.194Z,58.53
2023-02-24T06:33:27.174Z,58.60
2023-02-24T06:36:17.013Z,58.62
2023-02-24T06:39:09.779Z,58.61
2023-02-24T06:42:04.153Z,58.62
2023-02-24T06:44:54.987Z,58.68
2023-02-24T06:47:46.855Z,58.61
2023-02-24T06:50:36.705Z,58.72
2023-02-24T06:53:27.405Z,58.68
2023-02-24T06:56:20.155Z,58.60
2023-02-24T06:59:13.160Z,58.59
2023-02-24T07:02:03.839Z,58.46
2023-02-24T07:04:55.422Z,58.30
2023-02-24T07:07:46.111Z,58.18
2023-02-24T07:10:37.143Z,57.95
2023-02-24T07:13:29.988Z,57.72
2023-02-24T07:16:25.323Z,57.68
2023-02-24T07:19:16.983Z,57.80
2023-02-24T07:22:07.466Z,58.10
2023-02-24T07:25:00.749Z,58.31
2023-02-24T07:27:53.469Z,58.66
2023-02-24T07:30:44.326Z,59.04
2023-02-24T07:33:34.934Z,59.34
2023-02-24T07:36:29.960Z,59.43
2023-02-24T07:39:20.927Z,59.66
2023-02-24T07:42:12.577Z,60.12
2023-02-24T07:45:11.177Z,60.60
2023-02-24T07:48:02.628Z,60.74
2023-02-24T07:50:53.149Z,61.05
2023-02-24T07:53:43.523Z,61.20
2023-02-24T07:56:34.246Z,61.13
2023-02-24T07:59:24.442Z,61.17
2023-02-24T08:02:14.849Z,61.38
2023-02-24T08:05:09.226Z,61.57
2023-02-24T08:07:59.813Z,61.55
2023-02-24T08:10:50.219Z,61.60
2023-02-24T08:13:40.013Z,61.84
2023-02-24T08:16:39.562Z,62.02
2023-02-24T08:19:33.517Z,62.04
2023-02-24T08:22:25.444Z,62.14
2023-02-24T08:25:19.248Z,62.26
2023-02-24T08:28:11.818Z,62.38
2023-02-24T08:31:04.646Z,62.42
2023-02-24T08:33:58.096Z,62.47
2023-02-24T08:36:55.964Z,62.45
2023-02-24T08:39:46.624Z,62.62
2023-02-24T08:42:36.694Z,62.71
2023-02-24T08:45:28.890Z,62.77
2023-02-24T08:48:32.572Z,62.78
2023-02-24T08:51:28.812Z,62.86
2023-02-24T08:54:27.571Z,62.94
2023-02-24T08:57:18.425Z,63.01
2023-02-24T09:00:11.384Z,63.05
2023-02-24T09:03:08.404Z,63.08
2023-02-24T09:06:05.794Z,63.11
2023-02-24T09:09:12.148Z,63.21
2023-02-24T09:12:03.030Z,63.25
2023-02-24T09:15:01.277Z,63.25
2023-02-24T09:18:01.866Z,63.35
2023-02-24T09:21:15.971Z,63.33
2023-02-24T09:24:07.686Z,63.30
2023-02-24T09:26:59.160Z,63.25
2023-02-24T09:29:50.656Z,63.37
2023-02-24T09:32:40.964Z,63.30
2023-02-24T09:35:32.144Z,63.18
2023-02-24T09:38:45.601Z,63.12
2023-02-24T09:41:57.115Z,63.02
2023-02-24T09:44:52.991Z,62.82
2023-02-24T09:47:57.185Z,62.83
2023-02-24T09:51:03.786Z,62.69
2023-02-24T09:54:01.418Z,62.78
2023-02-24T09:57:08.760Z,62.63
2023-02-24T10:00:24.959Z,62.40
2023-02-24T10:03:41.702Z,62.20
2023-02-24T10:06:35.842Z,61.99
2023-02-24T10:09:34.963Z,61.93
2023-02-24T10:12:31.683Z,61.86
2023-02-24T10:15:56.997Z,61.68
2023-02-24T10:19:01.556Z,61.76
2023-02-24T10:22:03.260Z,61.90
2023-02-24T10:25:01.651Z,61.90
2023-02-24T10:28:01.939Z,61.98
2023-02-24T10:31:04.233Z,62.07
2023-02-24T10:34:01.212Z,62.15
2023-02-24T10:36:51.604Z,62.23
2023-02-24T10:39:44.252Z,62.15
2023-02-24T10:42:37.656Z,62.11
2023-02-24T10:45:34.682Z,61.84
2023-02-24T10:48:40.828Z,61.72
2023-02-24T10:51:38.976Z,61.44
2023-02-24T10:54:53.053Z,61.53
2023-02-24T10:57:58.901Z,61.41
2023-02-24T11:01:12.771Z,61.38
2023-02-24T11:04:23.057Z,61.30
2023-02-24T11:07:24.964Z,61.31
2023-02-24T11:10:26.363Z,61.29
2023-02-24T11:13:36.379Z,61.40
2023-02-24T11:16:45.132Z,61.62
2023-02-24T11:19:45.034Z,61.39
2023-02-24T11:22:39.601Z,61.15
2023-02-24T11:25:39.795Z,61.02
2023-02-24T11:28:47.023Z,61.29
2023-02-24T11:31:58.041Z,61.65
2023-02-24T11:34:55.464Z,61.80
2023-02-24T11:38:03.349Z,61.51
2023-02-24T11:41:03.066Z,61.29
2023-02-24T11:43:59.145Z,61.47
2023-02-24T11:46:57.754Z,61.53
2023-02-24T11:49:50.431Z,61.30
2023-02-24T11:52:47.286Z,61.33
2023-02-24T11:55:42.808Z,61.30
2023-02-24T11:58:46.497Z,61.47
2023-02-24T12:01:44.536Z,61.58
2023-02-24T12:04:41.180Z,61.41
2023-02-24T12:07:34.646Z,61.38
2023-02-24T12:10:29.188Z,61.44
2023-02-24T12:13:30.225Z,61.52
2023-02-24T12:16:23.876Z,61.58
2023-02-24T12:19:21.084Z,61.31
2023-02-24T12:22:15.978Z,61.34
2023-02-24T12:25:07.472Z,61.32
2023-02-24T12:28:16.845Z,61.33
2023-02-24T12:31:15.670Z,61.36
2023-02-24T12:34:14.543Z,61.43
2023-02-24T12:37:23.217Z,61.56
2023-02-24T12:40:30.323Z,61.69
2023-02-24T12:43:28.738Z,61.87
2023-02-24T12:46:27.584Z,62.03
2023-02-24T12:49:34.805Z,62.21
2023-02-24T12:52:34.242Z,62.40
2023-02-24T12:55:27.878Z,62.51
2023-02-24T12:58:25.586Z,62.67
2023-02-24T13:01:23.860Z,62.81
2023-02-24T13:04:38.754Z,62.87
2023-02-24T13:07:52.948Z,62.94
2023-02-24T13:10:48.961Z,62.96
2023-02-24T13:13:48.840Z,63.08
2023-02-24T13:16:39.023Z,63.15
2023-02-24T13:19:33.153Z,63.07
2023-02-24T13:22:33.284Z,63.21
2023-02-24T13:25:28.480Z,63.35
2023-02-24T13:28:27.955Z,63.38
2023-02-24T13:31:18.316Z,63.39
2023-02-24T13:34:29.972Z,63.34
2023-02-24T13:37:29.987Z,63.42
2023-02-24T13:40:29.505Z,63.50
2023-02-24T13:43:27.884Z,63.41
2023-02-24T13:46:21.913Z,63.42
2023-02-24T13:49:31.232Z,63.37
2023-02-24T13:52:32.768Z,63.31
2023-02-24T13:55:42.852Z,63.31
2023-02-24T13:58:50.399Z,63.29
2023-02-24T14:01:50.941Z,63.48
2023-02-24T14:04:46.654Z,63.45
2023-02-24T14:07:39.662Z,63.36
2023-02-24T14:10:33.348Z,63.37
2023-02-24T14:13:29.208Z,63.37
2023-02-24T14:16:24.106Z,63.34
2023-02-24T14:19:17.825Z,63.37
2023-02-24T14:22:18.898Z,63.38
2023-02-24T14:25:12.026Z,63.48
2023-02-24T14:28:02.287Z,63.59
2023-02-24T14:30:58.184Z,63.67
2023-02-24T14:33:48.412Z,63.60
2023-02-24T14:36:43.053Z,63.61
2023-02-24T14:39:35.548Z,63.80
2023-02-24T14:42:25.542Z,63.83
2023-02-24T14:45:23.044Z,64.00
2023-02-24T14:48:27.978Z,64.14
2023-02-24T14:51:25.017Z,64.31
2023-02-24T14:54:22.588Z,64.40
2023-02-24T14:57:18.958Z,64.43
2023-02-24T15:00:17.616Z,64.36
2023-02-24T15:03:16.911Z,64.41
2023-02-24T15:06:14.754Z,64.51
2023-02-24T15:09:08.620Z,64.72
2023-02-24T15:11:58.884Z,64.95
2023-02-24T15:14:54.497Z,65.08
2023-02-24T15:17:45.367Z,65.27
2023-02-24T15:20:38.530Z,65.64
2023-02-24T15:23:32.329Z,65.60
2023-02-24T15:26:35.067Z,65.73
2023-02-24T15:29:27.827Z,65.72
2023-02-24T15:32:21.137Z,65.74
2023-02-24T15:35:25.133Z,65.68
2023-02-24T15:38:25.327Z,65.75
2023-02-24T15:41:16.930Z,65.99
2023-02-24T15:44:06.868Z,66.00
2023-02-24T15:46:57.710Z,65.96
2023-02-24T15:49:47.754Z,66.14
2023-02-24T15:52:38.938Z,66.30
2023-02-24T15:55:30.132Z,66.35
2023-02-24T15:58:23.493Z,66.37
2023-02-24T16:01:13.796Z,66.67
2023-02-24T16:04:05.258Z,66.54
2023-02-24T16:06:58.380Z,66.67
2023-02-24T16:09:51.073Z,66.75
2023-02-24T16:12:46.658Z,66.97
2023-02-24T16:15:43.081Z,67.13
2023-02-24T16:18:32.977Z,67.46
2023-02-24T16:21:23.253Z,67.48
2023-02-24T16:24:13.768Z,67.52
2023-02-24T16:27:04.143Z,67.72
2023-02-24T16:29:55.127Z,67.95
2023-02-24T16:32:45.672Z,68.21
2023-02-24T16:35:35.909Z,68.23
2023-02-24T16:38:27.899Z,68.90
2023-02-24T16:41:18.452Z,68.06
2023-02-24T16:44:10.669Z,67.76
2023-02-24T16:47:01.009Z,67.59
2023-02-24T16:49:51.581Z,67.79
2023-02-24T16:52:41.863Z,67.69
2023-02-24T16:55:31.822Z,67.40
2023-02-24T16:58:23.520Z,67.10
2023-02-24T17:01:20.480Z,67.18
2023-02-24T17:04:11.694Z,67.49
2023-02-24T17:07:01.800Z,67.71
2023-02-24T17:09:51.976Z,67.72
2023-02-24T17:12:41.905Z,67.52
2023-02-24T17:15:32.744Z,67.44
2023-02-24T17:18:22.950Z,67.38
2023-02-24T17:21:16.195Z,67.39
2023-02-24T17:24:06.909Z,67.74
2023-02-24T17:26:59.428Z,68.00
2023-02-24T17:29:49.999Z,68.07
2023-02-24T17:32:40.196Z,68.10
2023-02-24T17:35:30.748Z,68.24
2023-02-24T17:38:24.055Z,68.29
2023-02-24T17:41:14.570Z,68.68
2023-02-24T17:44:05.223Z,68.72
2023-02-24T17:46:55.378Z,68.69
2023-02-24T17:49:45.667Z,68.74
2023-02-24T17:52:37.302Z,68.98
2023-02-24T17:55:27.881Z,68.84
2023-02-24T17:58:18.377Z,68.93
2023-02-24T18:01:09.386Z,69.09
2023-02-24T18:03:59.566Z,69.31
2023-02-24T18:06:50.775Z,69.23
2023-02-24T18:09:41.149Z,69.41
2023-02-24T18:12:31.487Z,69.86
2023-02-24T18:15:24.122Z,69.76
2023-02-24T18:18:14.642Z,69.78
2023-02-24T18:21:06.513Z,69.71
2023-02-24T18:23:56.557Z,69.71
2023-02-24T18:26:46.971Z,69.83
2023-02-24T18:29:37.014Z,69.78
2023-02-24T18:32:27.382Z,69.66
2023-02-24T18:35:23.906Z,69.50
2023-02-24T18:38:14.483Z,69.47
2023-02-24T18:41:06.398Z,69.61
2023-02-24T18:43:59.185Z,69.50
2023-02-24T18:46:49.896Z,69.43
2023-02-24T18:49:40.687Z,69.59
2023-02-24T18:52:31.242Z,69.47
2023-02-24T18:55:22.379Z,69.51
2023-02-24T18:58:12.466Z,69.52
2023-02-24T19:01:02.835Z,69.41
2023-02-24T19:03:55.486Z,69.32
2023-02-24T19:06:49.162Z,69.27
2023-02-24T19:09:41.558Z,69.31
2023-02-24T19:12:32.691Z,69.35
2023-02-24T19:15:23.831Z,69.37
2023-02-24T19:18:14.232Z,69.33
2023-02-24T19:21:05.621Z,69.34
2023-02-24T19:23:55.724Z,69.25
2023-02-24T19:26:47.775Z,69.27
2023-02-24T19:29:37.701Z,69.23
2023-02-24T19:32:28.319Z,69.23
2023-02-24T19:35:19.921Z,69.27
2023-02-24T19:38:12.391Z,69.34
2023-02-24T19:41:02.886Z,69.26
2023-02-24T19:43:53.883Z,69.12
2023-02-24T19:46:44.205Z,69.02
2023-02-24T19:49:34.788Z,68.99
2023-02-24T19:52:24.876Z,68.89
2023-02-24T19:55:16.150Z,68.92
2023-02-24T19:58:06.820Z,69.00
2023-02-24T20:00:57.049Z,69.04
2023-02-24T20:03:47.058Z,69.05
2023-02-24T20:06:39.306Z,69.12
2023-02-24T20:09:29.498Z,69.23
2023-02-24T20:12:19.679Z,69.34
2023-02-24T20:15:12.229Z,69.30
2023-02-24T20:18:04.786Z,69.23
2023-02-24T20:20:59.827Z,69.33
2023-02-24T20:23:49.898Z,69.19
2023-02-24T20:26:41.522Z,69.21
2023-02-24T20:29:33.074Z,69.33
2023-02-24T20:32:23.505Z,69.39
2023-02-24T20:35:14.051Z,69.33
2023-02-24T20:38:03.974Z,69.31
2023-02-24T20:41:01.651Z,69.27
2023-02-24T20:43:52.167Z,69.29
2023-02-24T20:46:42.236Z,69.26
2023-02-24T20:49:33.027Z,69.25
2023-02-24T20:52:23.360Z,69.23
2023-02-24T20:55:13.924Z,69.23
2023-02-24T20:58:04.121Z,69.30
2023-02-24T21:00:53.993Z,69.20
2023-02-24T21:03:44.900Z,69.21
2023-02-24T21:06:36.462Z,69.21
2023-02-24T21:09:27.396Z,69.24
2023-02-24T21:12:17.386Z,69.12
2023-02-24T21:15:08.764Z,69.06
2023-02-24T21:17:58.579Z,69.13
2023-02-24T21:20:49.325Z,69.19
2023-02-24T21:23:40.013Z,69.24
2023-02-24T21:26:30.280Z,69.24
2023-02-24T21:29:20.630Z,69.27
2023-02-24T21:32:11.053Z,69.23
2023-02-24T21:35:02.388Z,69.16
2023-02-24T21:37:52.508Z,69.13
2023-02-24T21:40:45.267Z,69.14
2023-02-24T21:43:35.503Z,69.17
2023-02-24T21:46:28.679Z,69.15
2023-02-24T21:49:19.430Z,69.14
2023-02-24T21:52:11.674Z,69.12
2023-02-24T21:55:02.257Z,69.23
2023-02-24T21:57:52.831Z,69.20
2023-02-24T22:00:42.919Z,69.19
2023-02-24T22:03:33.816Z,69.19
2023-02-24T22:06:26.111Z,69.20
2023-02-24T22:09:19.606Z,69.27
2023-02-24T22:12:10.044Z,69.32
2023-02-24T22:15:01.340Z,69.28
2023-02-24T22:17:51.402Z,69.30
2023-02-24T22:20:42.356Z,69.37
2023-02-24T22:23:32.929Z,69.37
2023-02-24T22:26:24.768Z,69.40
2023-02-24T22:29:15.521Z,69.36
2023-02-24T22:32:06.203Z,69.33
2023-02-24T22:34:56.263Z,69.44
2023-02-24T22:37:46.446Z,69.52
2023-02-24T22:40:37.267Z,69.56
2023-02-24T22:43:27.232Z,69.55
2023-02-24T22:46:19.429Z,69.47
2023-02-24T22:49:09.666Z,69.42
2023-02-24T22:51:59.595Z,69.39
2023-02-24T22:54:49.626Z,69.26
2023-02-24T22:57:39.610Z,69.32
2023-02-24T23:00:29.868Z,69.18
2023-02-24T23:03:23.088Z,69.07
2023-02-24T23:06:16.343Z,68.84
2023-02-24T23:09:07.730Z,68.75
2023-02-24T23:11:58.196Z,68.54
2023-02-24T23:14:48.918Z,68.50
2023-02-24T23:17:38.636Z,68.47
2023-02-24T23:20:28.805Z,68.30
2023-02-24T23:23:18.959Z,68.18
2023-02-24T23:26:09.545Z,68.17
2023-02-24T23:28:59.820Z,68.21
2023-02-24T23:31:51.293Z,68.17
2023-02-24T23:34:41.899Z,68.16
2023-02-24T23:37:32.241Z,68.20
2023-02-24T23:40:26.137Z,68.22
2023-02-24T23:43:16.952Z,68.19
2023-02-24T23:46:09.436Z,68.19
2023-02-24T23:49:00.502Z,68.10
2023-02-24T23:51:51.412Z,68.02
2023-02-24T23:54:46.097Z,67.98
2023-02-24T23:57:39.586Z,67.93
